createdAt,value
2023-09-12T14:19:48.742Z,99.90
2023-09-12T14:22:16.885Z,99.90
2023-09-12T14:24:44.421Z,99.50
2023-09-12T14:27:20.451Z,98.90
2023-09-12T14:29:53.491Z,99.00
2023-09-12T14:32:21.398Z,99.50
2023-09-12T14:34:48.541Z,99.50
2023-09-12T14:37:15.630Z,98.60
2023-09-12T14:39:42.796Z,98.00
2023-09-12T14:42:10.278Z,97.80
2023-09-12T14:44:38.491Z,97.60
2023-09-12T14:47:05.846Z,97.00
2023-09-12T14:49:39.321Z,97.10
2023-09-12T14:52:21.674Z,97.00
2023-09-12T14:54:52.350Z,97.10
2023-09-12T14:57:20.460Z,96.90
2023-09-12T14:59:47.744Z,96.90
2023-09-12T15:02:14.981Z,96.60
2023-09-12T15:04:42.191Z,96.40
2023-09-12T15:07:09.328Z,95.80
2023-09-12T15:09:36.716Z,95.50
2023-09-12T15:12:04.009Z,95.40
2023-09-12T15:14:31.622Z,95.50
2023-09-12T15:17:01.051Z,95.50
2023-09-12T15:19:28.325Z,94.70
2023-09-12T15:21:55.506Z,95.40
2023-09-12T15:24:23.625Z,95.60
2023-09-12T15:26:50.774Z,96.00
2023-09-12T15:29:18.182Z,96.60
2023-09-12T15:31:45.977Z,96.90
2023-09-12T15:34:13.148Z,97.10
2023-09-12T15:36:48.108Z,97.30
2023-09-12T15:39:15.995Z,97.50
2023-09-12T15:41:43.117Z,97.60
2023-09-12T15:44:16.060Z,98.20
2023-09-12T15:46:43.851Z,98.30
2023-09-12T15:49:11.133Z,98.20
2023-09-12T15:51:38.506Z,98.40
2023-09-12T15:54:05.778Z,98.80
2023-09-12T15:56:32.919Z,99.20
2023-09-12T15:58:59.997Z,99.10
2023-09-12T16:01:27.453Z,99.00
2023-09-12T16:03:55.488Z,99.20
2023-09-12T16:06:22.938Z,99.20
2023-09-12T16:08:50.126Z,99.40
2023-09-12T16:11:17.260Z,99.40
2023-09-12T16:13:44.617Z,99.40
2023-09-12T16:16:11.999Z,99.40
2023-09-12T16:18:39.225Z,99.90
2023-09-12T16:21:06.401Z,99.70
2023-09-12T16:23:33.483Z,99.70
2023-09-12T16:26:01.403Z,99.90
2023-09-12T16:28:28.992Z,99.90
2023-09-12T16:30:56.809Z,99.80
2023-09-12T16:33:24.277Z,99.70
2023-09-12T16:35:51.794Z,99.50
2023-09-12T16:38:18.893Z,99.40
2023-09-12T16:40:47.733Z,99.40
2023-09-12T16:43:14.820Z,99.60
2023-09-12T16:45:41.958Z,99.60
2023-09-12T16:48:09.075Z,99.50
2023-09-12T16:50:36.188Z,99.40
2023-09-12T16:53:05.273Z,99.50
2023-09-12T16:55:32.504Z,99.40
2023-09-12T16:58:00.096Z,99.40
2023-09-12T17:00:27.318Z,99.40
2023-09-12T17:02:54.582Z,99.40
2023-09-12T17:05:24.354Z,99.40
2023-09-12T17:07:51.518Z,99.30
2023-09-12T17:10:18.834Z,99.40
2023-09-12T17:12:45.999Z,99.60
2023-09-12T17:15:13.180Z,99.90
2023-09-12T17:17:40.315Z,99.90
2023-09-12T17:20:07.805Z,99.90
2023-09-12T17:22:34.909Z,99.90
2023-09-12T17:25:02.130Z,99.90
2023-09-12T17:27:30.225Z,99.90
2023-09-12T17:29:57.516Z,99.90
2023-09-12T17:32:25.086Z,99.90
2023-09-12T17:34:52.978Z,99.90
2023-09-12T17:37:20.239Z,99.90
2023-09-12T17:39:47.388Z,99.90
2023-09-12T17:42:14.550Z,99.90
2023-09-12T17:44:41.647Z,99.90
2023-09-12T17:47:09.228Z,99.90
2023-09-12T17:49:36.459Z,99.80
2023-09-12T17:52:03.653Z,99.80
2023-09-12T17:54:33.017Z,99.60
2023-09-12T17:57:00.247Z,99.60
2023-09-12T17:59:27.973Z,99.50
2023-09-12T18:01:55.705Z,99.40
2023-09-12T18:04:23.027Z,99.30
2023-09-12T18:06:50.288Z,99.20
2023-09-12T18:09:17.477Z,99.10
2023-09-12T18:11:44.674Z,99.10
2023-09-12T18:14:11.797Z,99.00
2023-09-12T18:16:39.045Z,98.90
2023-09-12T18:19:06.352Z,98.90
2023-09-12T18:21:33.807Z,98.90
2023-09-12T18:24:01.058Z,99.00
2023-09-12T18:26:28.169Z,99.00
2023-09-12T18:28:57.535Z,99.10
2023-09-12T18:31:24.691Z,99.10
2023-09-12T18:33:52.005Z,99.00
2023-09-12T18:36:19.649Z,98.90
2023-09-12T18:38:46.844Z,98.90
2023-09-12T18:41:14.873Z,98.90
2023-09-12T18:43:42.374Z,98.90
2023-09-12T18:46:10.008Z,98.80
2023-09-12T18:48:38.862Z,98.70
2023-09-12T18:51:06.285Z,98.80
2023-09-12T18:53:33.491Z,98.80
2023-09-12T18:56:00.895Z,98.90
2023-09-12T18:58:28.102Z,98.90
2023-09-12T19:00:58.264Z,98.90
2023-09-12T19:03:26.900Z,98.90
2023-09-12T19:05:54.437Z,98.90
2023-09-12T19:08:21.555Z,98.90
2023-09-12T19:10:48.853Z,98.80
2023-09-12T19:13:16.001Z,98.60
2023-09-12T19:15:45.034Z,98.50
2023-09-12T19:18:12.989Z,98.40
2023-09-12T19:20:41.221Z,98.50
2023-09-12T19:23:08.410Z,98.50
2023-09-12T19:25:35.662Z,98.50
2023-09-12T19:28:04.088Z,98.30
2023-09-12T19:30:34.919Z,98.60
2023-09-12T19:33:05.353Z,98.30
2023-09-12T19:35:33.692Z,98.50
2023-09-12T19:38:02.842Z,98.40
2023-09-12T19:40:30.151Z,98.20
2023-09-12T19:42:57.302Z,98.20
2023-09-12T19:45:24.552Z,98.00
2023-09-12T19:48:00.731Z,97.80
2023-09-12T19:50:32.332Z,97.60
2023-09-12T19:52:59.580Z,97.50
2023-09-12T19:55:26.935Z,97.40
2023-09-12T19:57:54.194Z,97.50
2023-09-12T20:00:21.377Z,97.50
2023-09-12T20:02:50.122Z,97.40
2023-09-12T20:05:22.615Z,97.40
2023-09-12T20:07:51.097Z,97.60
2023-09-12T20:10:22.976Z,97.10
2023-09-12T20:12:51.624Z,97.00
2023-09-12T20:15:20.477Z,97.00
2023-09-12T20:17:52.198Z,97.10
2023-09-12T20:20:23.009Z,97.00
2023-09-12T20:22:50.897Z,97.00
2023-09-12T20:25:20.086Z,96.90
2023-09-12T20:27:47.204Z,96.90
2023-09-12T20:30:15.638Z,96.90
2023-09-12T20:32:57.744Z,96.80
2023-09-12T20:35:31.726Z,96.70
2023-09-12T20:38:00.414Z,96.60
2023-09-12T20:40:29.551Z,96.60
2023-09-12T20:42:57.068Z,96.50
2023-09-12T20:45:24.585Z,96.50
2023-09-12T20:47:52.721Z,96.40
2023-09-12T20:50:27.127Z,96.50
2023-09-12T20:52:58.709Z,96.70
2023-09-12T20:55:30.238Z,96.50
2023-09-12T20:58:00.814Z,96.50
2023-09-12T21:00:28.679Z,96.40
2023-09-12T21:02:55.955Z,96.40
2023-09-12T21:05:24.629Z,96.50
2023-09-12T21:07:52.014Z,96.50
2023-09-12T21:10:19.195Z,96.50
2023-09-12T21:12:46.352Z,96.40
2023-09-12T21:15:13.444Z,96.40
2023-09-12T21:17:40.595Z,96.40
2023-09-12T21:20:08.376Z,96.30
2023-09-12T21:22:35.870Z,96.30
2023-09-12T21:25:04.228Z,96.30
2023-09-12T21:27:31.477Z,96.30
2023-09-12T21:29:58.634Z,96.30
2023-09-12T21:32:26.022Z,96.20
2023-09-12T21:35:19.529Z,96.10
2023-09-12T21:37:47.564Z,96.00
2023-09-12T21:40:15.859Z,95.90
2023-09-12T21:42:43.382Z,95.90
2023-09-12T21:45:16.136Z,95.80
2023-09-12T21:47:45.572Z,95.70
2023-09-12T21:50:13.732Z,94.40
2023-09-12T21:52:41.474Z,94.10
2023-09-12T21:55:09.251Z,94.50
2023-09-12T21:57:36.939Z,95.10
2023-09-12T22:00:22.035Z,95.20
2023-09-12T22:02:51.291Z,95.20
2023-09-12T22:05:18.878Z,95.20
2023-09-12T22:07:46.051Z,95.10
2023-09-12T22:10:14.059Z,95.00
2023-09-12T22:12:41.627Z,95.20
2023-09-12T22:15:09.392Z,95.30
2023-09-12T22:17:36.657Z,95.30
2023-09-12T22:20:05.601Z,95.40
2023-09-12T22:22:33.396Z,95.40
2023-09-12T22:25:00.630Z,95.50
2023-09-12T22:27:27.866Z,95.70
2023-09-12T22:29:55.033Z,95.60
2023-09-12T22:32:22.202Z,95.70
2023-09-12T22:34:49.359Z,95.50
2023-09-12T22:37:16.438Z,95.60
2023-09-12T22:39:43.928Z,95.50
2023-09-12T22:42:11.087Z,95.40
2023-09-12T22:44:38.318Z,95.30
2023-09-12T22:47:05.492Z,95.10
2023-09-12T22:49:32.603Z,94.90
2023-09-12T22:51:59.730Z,94.90
2023-09-12T22:54:26.960Z,94.70
2023-09-12T22:56:54.058Z,94.90
2023-09-12T22:59:21.202Z,94.90
2023-09-12T23:01:48.418Z,94.90
2023-09-12T23:04:15.783Z,94.70
2023-09-12T23:06:43.010Z,94.80
2023-09-12T23:09:10.120Z,94.30
2023-09-12T23:11:37.235Z,94.40
2023-09-12T23:14:04.355Z,94.50
2023-09-12T23:16:31.560Z,94.40
2023-09-12T23:18:59.030Z,94.30
2023-09-12T23:21:26.306Z,94.10
2023-09-12T23:23:53.392Z,93.90
2023-09-12T23:26:20.699Z,93.80
2023-09-12T23:28:47.788Z,93.70
2023-09-12T23:31:14.991Z,93.50
2023-09-12T23:33:42.287Z,93.60
2023-09-12T23:36:10.563Z,93.60
2023-09-12T23:38:37.931Z,94.10
2023-09-12T23:41:05.024Z,94.70
2023-09-12T23:43:33.392Z,94.90
2023-09-12T23:46:00.833Z,95.10
2023-09-12T23:48:28.033Z,95.10
2023-09-12T23:50:55.363Z,95.10
2023-09-12T23:53:22.660Z,95.10
2023-09-12T23:55:50.760Z,94.90
2023-09-12T23:58:18.106Z,94.70
